Palonegro Airport
SKBG : now visible

Airfield :











YOU CAN JOIN US ON...

 
LOGIN :

Register | Disclaimer

   EN    FR    IT 

 









Legend :    VFR   Marginal VFR   IFR   Intensive IFR   Very Intensive IFR
Visi :
Ceiling :
>= 8 km
>= 3000ft
5 to 8 km
1000 to 3000 ft
1500m to 5 km
500 to 1000 ft
800 to 1500m
200 to 500 ft
< 800m
< 200 ft
Symbols :   Thunderstorms  Fog  Heavy snow  Heavy precipitations  Wind > 20 kt






- Airport Elevation : 3897 ft
- IATA code : BGA


SKBG - Palonegro

CURRENT METAR :
  • 131600Z 09003KT 9999 SCT017 SCT090 24/19 Q1018

EXPIRED METARs :
  • 131500Z 15004KT 9999 SCT017 SCT090 23/19 Q1019
  • 131400Z 18004KT 9999 SCT017 BKN070 21/19 Q1019
  • 131300Z 18006KT 9999 SCT017 SCT070 20/18 Q1019
  • 131200Z 19003KT 9999 SCT017 SCT070 20/18 Q1018

TAF TAF SKBG
Valid from the 13 at 12:00 until the 14 at 12:00 UTC


131030Z 1312/1412 00000KT 9999 SCT010
TEMPO 1312/1315 5000 DZ BCFG BKN006
BECMG 1316/1318 32011KT
TEMPO 1320/1324 DZRA SCT015TCU
BECMG 1402/1404 VRB03KT TX27/1319Z TN19/1410Z
SKED FIR / South America



MET'MAP, your aeronautical weather chart ! - Copyright ORBIFLY December 2007 - Disclaimer

ORBIFLY MET'MAP TEAM :

Programming & Development : Alexandra Zaïnal
Original concept : Baudouin d'Aumeries
Technical & hardware support : Manuel Goepfert
Assistance : Marc-Olivier Méhu




SOURCES & CREDITS :

   NOAA       Earth
Advisory